createdAt,value
2019-05-30T00:00:43.171Z,12.90
2019-05-30T00:01:43.172Z,12.30
2019-05-30T00:02:43.191Z,13.30
2019-05-30T00:03:43.139Z,13.00
2019-05-30T00:04:43.130Z,12.40
2019-05-30T00:05:43.129Z,13.00
2019-05-30T00:06:43.129Z,13.10
2019-05-30T00:07:43.099Z,13.00
2019-05-30T00:08:43.128Z,13.50
2019-05-30T00:09:43.082Z,13.40
2019-05-30T00:10:43.078Z,12.90
2019-05-30T00:11:43.055Z,12.60
2019-05-30T00:12:43.088Z,14.50
2019-05-30T00:13:43.038Z,13.00
2019-05-30T00:14:43.017Z,14.20
2019-05-30T00:15:43.018Z,12.20
2019-05-30T00:16:43.020Z,62.20
2019-05-30T00:17:42.997Z,17.50
2019-05-30T00:18:43.026Z,15.30
2019-05-30T00:19:42.991Z,15.40
2019-05-30T00:20:42.955Z,18.20
2019-05-30T00:21:42.952Z,22.20
2019-05-30T00:22:42.936Z,28.90
2019-05-30T00:23:42.923Z,221.20
2019-05-30T00:24:42.953Z,239.20
2019-05-30T00:25:42.907Z,723.40
2019-05-30T00:26:42.894Z,689.60
2019-05-30T00:27:42.919Z,495.30
2019-05-30T00:28:42.912Z,260.10
2019-05-30T00:29:42.872Z,282.50
2019-05-30T00:30:42.893Z,1025.00
2019-05-30T00:31:42.842Z,1054.40
2019-05-30T00:32:42.831Z,1197.70
2019-05-30T00:33:42.820Z,656.20
2019-05-30T00:34:42.809Z,826.50
2019-05-30T00:35:42.806Z,473.80
2019-05-30T00:36:42.827Z,157.30
2019-05-30T00:37:42.779Z,164.70
2019-05-30T00:38:42.769Z,260.10
2019-05-30T00:39:42.757Z,32.30
2019-05-30T00:40:42.751Z,74.10
2019-05-30T00:41:42.729Z,72.50
2019-05-30T00:42:42.766Z,35.20
2019-05-30T00:43:42.707Z,36.30
2019-05-30T00:44:42.708Z,29.80
2019-05-30T00:45:42.689Z,30.40
2019-05-30T00:46:42.678Z,76.90
2019-05-30T00:47:42.705Z,27.10
2019-05-30T00:48:42.688Z,28.30
2019-05-30T00:49:42.654Z,352.10
2019-05-30T00:50:42.637Z,744.20
2019-05-30T00:51:42.635Z,848.70
2019-05-30T00:52:42.615Z,592.80
2019-05-30T00:53:42.597Z,876.60
2019-05-30T00:54:42.636Z,606.50
2019-05-30T00:55:42.586Z,505.40
2019-05-30T00:56:42.574Z,509.40
2019-05-30T00:57:42.564Z,175.70
2019-05-30T00:58:42.555Z,507.80
2019-05-30T00:59:42.594Z,581.00
2019-05-30T01:00:44.181Z,981.10
2019-05-30T01:01:42.527Z,1011.40
2019-05-30T01:02:42.532Z,1013.80
2019-05-30T01:03:42.491Z,808.90
2019-05-30T01:04:42.495Z,925.80
2019-05-30T01:05:42.482Z,472.90
2019-05-30T01:06:42.531Z,371.50
2019-05-30T01:07:42.460Z,237.50
2019-05-30T01:08:42.439Z,57.40
2019-05-30T01:09:42.444Z,137.80
2019-05-30T01:10:42.421Z,128.80
2019-05-30T01:11:42.413Z,87.30
2019-05-30T01:12:42.442Z,287.60
2019-05-30T01:13:42.391Z,28.40
2019-05-30T01:14:42.410Z,22.50
2019-05-30T01:15:42.368Z,24.60
2019-05-30T01:16:42.806Z,23.70
2019-05-30T01:17:42.349Z,22.10
2019-05-30T01:18:42.329Z,23.00
2019-05-30T01:19:42.322Z,22.10
2019-05-30T01:20:42.308Z,21.00
2019-05-30T01:21:42.303Z,19.90
2019-05-30T01:22:42.324Z,19.20
2019-05-30T01:23:42.278Z,114.10
2019-05-30T01:24:42.268Z,777.00
2019-05-30T01:25:42.262Z,958.10
2019-05-30T01:26:42.284Z,1332.80
2019-05-30T01:27:42.236Z,1390.90
2019-05-30T01:28:42.307Z,1375.10
2019-05-30T01:29:42.216Z,1341.20
2019-05-30T01:30:58.625Z,1465.80
2019-05-30T01:31:43.229Z,1404.70
2019-05-30T01:32:42.195Z,1303.70
2019-05-30T01:33:42.177Z,1517.10
2019-05-30T01:34:42.167Z,1214.70
2019-05-30T01:35:42.183Z,1553.00
2019-05-30T01:36:42.158Z,1787.70
2019-05-30T01:37:42.134Z,1336.70
2019-05-30T01:38:42.150Z,1211.20
2019-05-30T01:39:42.104Z,745.20
2019-05-30T01:40:42.112Z,1194.20
2019-05-30T01:41:42.244Z,1172.70
2019-05-30T01:42:42.072Z,1107.80
2019-05-30T01:43:42.067Z,1018.90
2019-05-30T01:44:42.055Z,1210.30
2019-05-30T01:45:42.044Z,1027.10
2019-05-30T01:46:42.030Z,1112.50
2019-05-30T01:47:42.050Z,1065.30
2019-05-30T01:48:42.009Z,1001.90
2019-05-30T01:49:42.002Z,945.40
2019-05-30T01:50:41.981Z,925.50
2019-05-30T01:51:41.980Z,807.00
2019-05-30T01:52:41.962Z,1245.40
2019-05-30T01:53:41.989Z,1089.30
2019-05-30T01:54:41.950Z,960.80
2019-05-30T01:55:41.935Z,467.50
2019-05-30T01:56:41.926Z,1089.90
2019-05-30T01:57:41.924Z,767.00
2019-05-30T01:58:41.898Z,771.40
2019-05-30T01:59:41.918Z,619.30
2019-05-30T02:00:41.917Z,464.00
2019-05-30T02:01:41.871Z,402.80
2019-05-30T02:02:41.855Z,376.60
2019-05-30T02:03:41.898Z,459.50
2019-05-30T02:04:41.878Z,549.50
2019-05-30T02:05:41.836Z,410.30
2019-05-30T02:06:41.814Z,223.90
2019-05-30T02:07:41.810Z,970.60
2019-05-30T02:08:41.796Z,862.30
2019-05-30T02:09:41.786Z,1007.20
2019-05-30T02:10:41.816Z,1202.20
2019-05-30T02:11:41.771Z,866.60
2019-05-30T02:12:41.753Z,320.60
2019-05-30T02:13:41.754Z,389.70
2019-05-30T02:14:41.734Z,567.80
2019-05-30T02:15:41.712Z,617.60
2019-05-30T02:16:41.768Z,199.40
2019-05-30T02:17:41.714Z,45.90
2019-05-30T02:18:41.692Z,26.80
2019-05-30T02:19:41.721Z,28.10
2019-05-30T02:20:41.662Z,218.70
2019-05-30T02:21:41.651Z,1089.30
2019-05-30T02:22:41.681Z,1056.70
2019-05-30T02:23:41.630Z,1331.10
2019-05-30T02:24:41.620Z,1503.30
2019-05-30T02:25:41.609Z,1644.00
2019-05-30T02:26:41.639Z,1113.30
2019-05-30T02:27:41.605Z,1382.30
2019-05-30T02:28:41.617Z,1214.10
2019-05-30T02:29:41.568Z,1677.40
2019-05-30T02:30:41.560Z,1131.80
2019-05-30T02:31:41.551Z,1299.00
2019-05-30T02:32:41.572Z,1052.00
2019-05-30T02:33:41.554Z,984.20
2019-05-30T02:34:41.520Z,803.60
2019-05-30T02:35:41.506Z,685.60
2019-05-30T02:36:41.503Z,699.90
2019-05-30T02:37:41.475Z,1136.20
2019-05-30T02:38:41.522Z,930.70
2019-05-30T02:39:41.472Z,886.90
2019-05-30T02:40:41.452Z,1049.50
2019-05-30T02:41:41.458Z,1007.70
2019-05-30T02:42:41.444Z,887.60
2019-05-30T02:43:41.418Z,867.40
2019-05-30T02:44:41.486Z,958.90
2019-05-30T02:45:41.396Z,973.10
2019-05-30T02:46:41.390Z,729.00
2019-05-30T02:47:41.374Z,820.30
2019-05-30T02:48:57.208Z,803.40
2019-05-30T02:49:42.400Z,472.50
2019-05-30T02:50:41.344Z,581.10
2019-05-30T02:51:41.331Z,741.60
2019-05-30T02:52:41.353Z,759.20
2019-05-30T02:53:41.312Z,757.30
2019-05-30T02:54:41.302Z,815.50
2019-05-30T02:55:41.324Z,894.80
2019-05-30T02:56:41.281Z,657.80
2019-05-30T02:57:41.264Z,831.30
2019-05-30T02:58:41.261Z,673.60
2019-05-30T02:59:41.241Z,1195.20
2019-05-30T03:00:41.291Z,1040.70
2019-05-30T03:01:59.041Z,1244.20
2019-05-30T03:02:42.211Z,1127.60
2019-05-30T03:03:41.240Z,1141.60
2019-05-30T03:04:41.188Z,1068.40
2019-05-30T03:05:41.181Z,848.10
2019-05-30T03:06:41.169Z,990.80
2019-05-30T03:07:41.205Z,657.70
2019-05-30T03:08:41.165Z,702.80
2019-05-30T03:09:41.138Z,779.00
2019-05-30T03:10:41.128Z,888.20
2019-05-30T03:11:41.117Z,851.90
2019-05-30T03:12:41.107Z,1048.90
2019-05-30T03:13:41.138Z,911.80
2019-05-30T03:14:41.088Z,824.30
2019-05-30T03:15:41.076Z,938.50
2019-05-30T03:16:41.068Z,643.70
2019-05-30T03:17:41.055Z,433.20
2019-05-30T03:18:41.048Z,538.30
2019-05-30T03:19:41.081Z,347.10
2019-05-30T03:20:41.016Z,84.60
2019-05-30T03:21:41.026Z,44.00
2019-05-30T03:22:41.015Z,88.10
2019-05-30T03:23:40.991Z,204.00
2019-05-30T03:24:40.983Z,379.10
2019-05-30T03:25:41.015Z,755.20
2019-05-30T03:26:40.959Z,939.90
2019-05-30T03:27:40.946Z,1530.50
2019-05-30T03:28:40.980Z,1647.80
2019-05-30T03:29:40.930Z,1390.50
2019-05-30T03:30:40.913Z,1518.30
2019-05-30T03:31:40.911Z,1636.50
2019-05-30T03:33:43.030Z,1436.20
2019-05-30T03:34:40.878Z,1508.30
2019-05-30T03:35:43.596Z,1495.00
2019-05-30T03:36:40.877Z,1657.80
2019-05-30T03:37:40.907Z,1364.50
2019-05-30T03:38:40.830Z,1349.70
2019-05-30T03:39:40.854Z,1712.60
2019-05-30T03:40:40.812Z,1610.30
2019-05-30T03:41:40.799Z,1805.50
2019-05-30T03:42:40.792Z,1832.70
2019-05-30T03:43:40.768Z,1493.40
2019-05-30T03:44:40.806Z,1537.00
2019-05-30T03:45:40.774Z,1749.40
2019-05-30T03:46:40.738Z,1873.80
2019-05-30T03:47:40.739Z,1683.20
2019-05-30T03:48:40.726Z,1486.00
2019-05-30T03:49:40.706Z,1594.10
2019-05-30T03:50:40.736Z,1897.90
2019-05-30T03:51:40.687Z,1796.20
2019-05-30T03:52:40.676Z,1599.40
2019-05-30T03:53:40.657Z,1723.70
2019-05-30T03:54:40.696Z,1648.80
2019-05-30T03:55:40.648Z,1479.00
2019-05-30T03:56:40.687Z,1349.70
2019-05-30T03:57:40.635Z,1472.00
2019-05-30T03:58:40.614Z,1830.70
2019-05-30T03:59:40.609Z,1818.40
2019-05-30T04:00:40.587Z,1831.70
2019-05-30T04:01:40.575Z,1850.00
2019-05-30T04:02:56.205Z,1534.10
2019-05-30T04:03:41.556Z,1572.30
2019-05-30T04:04:40.561Z,1809.60
2019-05-30T04:05:40.558Z,1999.90
2019-05-30T04:06:40.523Z,1590.20
2019-05-30T04:07:40.517Z,1397.90
2019-05-30T04:08:40.557Z,1791.70
2019-05-30T04:09:40.493Z,1980.90
2019-05-30T04:10:40.478Z,1899.70
2019-05-30T04:11:40.509Z,1999.90
2019-05-30T04:12:40.500Z,1999.90
2019-05-30T04:13:40.464Z,1999.90
2019-05-30T04:14:40.438Z,1980.60
2019-05-30T04:15:40.443Z,1999.90
2019-05-30T04:16:40.436Z,1713.70
2019-05-30T04:17:40.452Z,1762.20
2019-05-30T04:18:40.389Z,1978.20
2019-05-30T04:19:40.409Z,1999.90
2019-05-30T04:20:40.377Z,1999.90
2019-05-30T04:21:40.361Z,1814.60
2019-05-30T04:22:40.375Z,1857.00
2019-05-30T04:23:40.377Z,1630.40
2019-05-30T04:24:40.328Z,1670.90
2019-05-30T04:25:40.327Z,1950.10
2019-05-30T04:26:40.314Z,1961.70
2019-05-30T04:27:40.301Z,1999.90
2019-05-30T04:28:40.285Z,1999.90
2019-05-30T04:29:40.314Z,1999.90
2019-05-30T04:30:40.267Z,1999.90
2019-05-30T04:31:40.264Z,1918.10
2019-05-30T04:32:40.248Z,1773.20
2019-05-30T04:33:40.234Z,1693.10
2019-05-30T04:34:40.224Z,1376.50
2019-05-30T04:35:40.245Z,1379.50
2019-05-30T04:36:40.203Z,1375.40
2019-05-30T04:37:40.203Z,945.70
2019-05-30T04:38:40.175Z,1181.00
2019-05-30T04:39:40.215Z,1271.50
2019-05-30T04:40:40.162Z,1583.70
2019-05-30T04:41:40.163Z,1453.50
2019-05-30T04:42:40.185Z,1206.70
2019-05-30T04:43:40.131Z,1182.80
2019-05-30T04:44:40.112Z,1097.70
2019-05-30T04:45:40.103Z,1163.40
2019-05-30T04:46:40.090Z,1191.50
2019-05-30T04:47:40.121Z,1453.80
2019-05-30T04:48:40.070Z,1292.60
2019-05-30T04:49:40.073Z,1473.20
2019-05-30T04:50:40.050Z,1468.50
2019-05-30T04:51:40.047Z,1611.60
2019-05-30T04:52:40.022Z,1223.30
2019-05-30T04:53:40.055Z,1789.40
2019-05-30T04:54:40.007Z,1570.30
2019-05-30T04:55:39.988Z,1727.20
2019-05-30T04:56:39.985Z,1048.70
2019-05-30T04:57:39.969Z,1062.70
2019-05-30T04:58:42.160Z,634.40
2019-05-30T04:59:39.985Z,600.80
2019-05-30T05:00:39.949Z,258.80
2019-05-30T05:01:39.926Z,943.70
2019-05-30T05:02:39.957Z,832.10
2019-05-30T05:03:45.739Z,505.30
2019-05-30T05:04:40.898Z,200.70
2019-05-30T05:05:39.886Z,644.20
2019-05-30T05:06:39.875Z,1620.60
2019-05-30T05:07:39.885Z,1571.00
2019-05-30T05:08:39.898Z,1311.20
2019-05-30T05:09:39.843Z,1223.60
2019-05-30T05:10:39.835Z,780.60
2019-05-30T05:11:39.824Z,868.20
2019-05-30T05:12:39.813Z,134.50
2019-05-30T05:13:39.798Z,178.10
2019-05-30T05:14:39.833Z,181.80
2019-05-30T05:15:39.782Z,53.20
2019-05-30T05:16:39.791Z,45.20
2019-05-30T05:17:39.770Z,45.40
2019-05-30T05:18:39.754Z,39.10
2019-05-30T05:19:39.781Z,44.10
2019-05-30T05:20:39.737Z,43.00
2019-05-30T05:21:39.730Z,35.60
2019-05-30T05:22:40.913Z,32.20
2019-05-30T05:23:39.692Z,40.50
2019-05-30T05:24:39.689Z,44.20
2019-05-30T05:25:39.709Z,52.30
2019-05-30T05:26:39.659Z,42.20
2019-05-30T05:27:39.671Z,38.20
2019-05-30T05:28:39.686Z,41.70
2019-05-30T05:29:39.627Z,31.30
2019-05-30T05:30:39.697Z,35.70
2019-05-30T05:31:39.656Z,31.10
2019-05-30T05:32:39.598Z,29.50
2019-05-30T05:33:55.486Z,29.20
2019-05-30T05:34:40.584Z,35.50
2019-05-30T05:35:39.734Z,33.90
2019-05-30T05:36:39.546Z,34.90
2019-05-30T05:37:39.579Z,32.40
2019-05-30T05:38:39.543Z,50.10
2019-05-30T05:39:39.515Z,25.00
2019-05-30T05:40:39.505Z,218.80
2019-05-30T05:41:39.504Z,218.30
2019-05-30T05:42:39.493Z,58.80
2019-05-30T05:43:39.514Z,63.50
2019-05-30T05:44:39.469Z,97.80
2019-05-30T05:45:39.465Z,35.00
2019-05-30T05:46:39.444Z,61.60
2019-05-30T05:47:39.456Z,31.00
2019-05-30T05:48:39.424Z,34.20
2019-05-30T05:49:39.463Z,30.60
2019-05-30T05:50:39.400Z,25.40
2019-05-30T05:51:39.392Z,26.80
2019-05-30T05:52:39.384Z,28.70
2019-05-30T05:53:39.372Z,27.60
2019-05-30T05:54:39.403Z,25.00
2019-05-30T05:55:39.385Z,25.10
2019-05-30T05:56:39.342Z,24.20
2019-05-30T05:57:39.327Z,24.30
2019-05-30T05:58:39.322Z,23.20
2019-05-30T05:59:39.311Z,24.80
2019-05-30T06:00:39.341Z,23.70
2019-05-30T06:01:39.300Z,20.50
2019-05-30T06:02:39.276Z,26.10
2019-05-30T06:03:39.261Z,26.30
2019-05-30T06:04:39.258Z,24.50
2019-05-30T06:05:52.231Z,22.30
2019-05-30T06:06:40.270Z,22.60
2019-05-30T06:07:39.227Z,312.70
2019-05-30T06:08:39.218Z,722.70
2019-05-30T06:09:39.207Z,56.20
2019-05-30T06:10:39.194Z,37.50
2019-05-30T06:11:39.176Z,26.70
2019-05-30T06:12:39.237Z,23.50
2019-05-30T06:13:39.157Z,24.30
2019-05-30T06:14:39.143Z,23.30
2019-05-30T06:15:39.147Z,23.60
2019-05-30T06:16:39.145Z,20.00
2019-05-30T06:17:39.130Z,19.00
2019-05-30T06:18:39.135Z,30.40
2019-05-30T06:19:46.359Z,22.40
2019-05-30T06:20:40.074Z,22.20
2019-05-30T06:21:52.998Z,141.70
2019-05-30T06:22:40.078Z,27.10
2019-05-30T06:23:39.064Z,23.00
2019-05-30T06:24:39.073Z,22.20
2019-05-30T06:25:39.024Z,35.50
2019-05-30T06:26:39.014Z,21.70
2019-05-30T06:27:39.011Z,22.30
2019-05-30T06:28:38.994Z,64.20
2019-05-30T06:29:38.988Z,20.60
2019-05-30T06:30:39.014Z,19.60
2019-05-30T06:31:38.961Z,21.20
2019-05-30T06:32:38.973Z,16.70
2019-05-30T06:33:38.980Z,18.10
2019-05-30T06:34:39.967Z,20.80
2019-05-30T06:35:38.922Z,19.30
2019-05-30T06:36:38.921Z,22.20
2019-05-30T06:37:38.901Z,19.80
2019-05-30T06:38:38.888Z,18.60
2019-05-30T06:39:38.929Z,20.00
2019-05-30T06:40:38.881Z,21.30
2019-05-30T06:41:38.849Z,20.80
2019-05-30T06:42:38.849Z,16.40
2019-05-30T06:43:38.863Z,18.50
2019-05-30T06:44:38.822Z,18.50
2019-05-30T06:45:38.848Z,21.20
2019-05-30T06:46:38.805Z,133.10
2019-05-30T06:47:38.789Z,56.70
2019-05-30T06:48:38.795Z,62.20
2019-05-30T06:49:38.775Z,97.60
2019-05-30T06:50:38.813Z,186.20
2019-05-30T06:51:38.795Z,23.10
2019-05-30T06:52:38.735Z,19.70
2019-05-30T06:53:38.736Z,20.00
2019-05-30T06:54:38.715Z,19.30
2019-05-30T06:55:38.705Z,31.40
2019-05-30T06:56:38.725Z,26.40
2019-05-30T06:57:38.727Z,20.30
2019-05-30T06:58:48.065Z,18.60
2019-05-30T06:59:39.663Z,19.10
2019-05-30T07:00:38.663Z,16.90
2019-05-30T07:01:38.639Z,18.20
2019-05-30T07:02:38.708Z,19.10
2019-05-30T07:03:38.693Z,18.70
2019-05-30T07:04:50.961Z,17.30
2019-05-30T07:05:40.266Z,17.00
2019-05-30T07:06:38.926Z,17.00
2019-05-30T07:07:38.744Z,16.60
2019-05-30T07:08:38.561Z,16.70
2019-05-30T07:09:38.601Z,16.40
2019-05-30T07:10:38.553Z,15.70
2019-05-30T07:11:38.530Z,15.90
2019-05-30T07:12:38.523Z,15.60
2019-05-30T07:13:38.511Z,14.70
2019-05-30T07:14:38.499Z,14.40
2019-05-30T07:15:38.528Z,14.40
2019-05-30T07:16:38.502Z,13.00
2019-05-30T07:17:38.473Z,15.20
2019-05-30T07:18:38.483Z,14.80
2019-05-30T07:19:38.440Z,15.70
2019-05-30T07:20:38.441Z,15.00
2019-05-30T07:21:38.497Z,13.90
2019-05-30T07:22:38.416Z,12.80
2019-05-30T07:23:39.541Z,12.30
2019-05-30T07:24:38.399Z,12.80
2019-05-30T07:25:38.402Z,12.80
2019-05-30T07:26:38.374Z,11.80
2019-05-30T07:27:38.409Z,11.90
2019-05-30T07:28:38.346Z,12.00
2019-05-30T07:29:38.376Z,11.60
2019-05-30T07:30:38.335Z,11.60
2019-05-30T07:31:38.318Z,12.30
2019-05-30T07:32:38.307Z,11.30
2019-05-30T07:33:38.295Z,13.00
2019-05-30T07:34:38.326Z,13.80
2019-05-30T07:35:38.277Z,11.10
2019-05-30T07:36:38.261Z,11.20
2019-05-30T07:37:38.286Z,11.30
2019-05-30T07:38:38.274Z,9.50
2019-05-30T07:39:38.222Z,10.80
2019-05-30T07:40:38.253Z,10.10
2019-05-30T07:41:38.230Z,10.20
2019-05-30T07:42:38.194Z,11.30
2019-05-30T07:43:38.256Z,10.20
2019-05-30T07:44:38.172Z,10.60
2019-05-30T07:45:38.170Z,10.40
2019-05-30T07:46:38.155Z,10.40
2019-05-30T07:47:38.613Z,11.50
2019-05-30T07:48:38.602Z,9.90
2019-05-30T07:49:38.698Z,10.90
2019-05-30T07:50:38.804Z,10.50
2019-05-30T07:51:39.015Z,9.70
2019-05-30T07:52:39.024Z,9.70
2019-05-30T07:53:39.144Z,9.70
2019-05-30T07:54:39.170Z,10.00
2019-05-30T07:55:39.116Z,10.30
2019-05-30T07:56:38.140Z,9.80
2019-05-30T07:57:41.025Z,8.80
2019-05-30T07:58:38.028Z,8.90
2019-05-30T07:59:38.690Z,9.70
2019-05-30T08:00:38.006Z,9.00
2019-05-30T08:01:39.609Z,8.50
2019-05-30T08:02:38.056Z,8.40
2019-05-30T08:03:38.890Z,8.00
2019-05-30T08:04:37.966Z,8.70
2019-05-30T08:05:38.979Z,11.60
2019-05-30T08:06:37.993Z,8.20
2019-05-30T08:07:39.002Z,7.40
2019-05-30T08:08:38.160Z,7.70
2019-05-30T08:09:39.180Z,7.60
2019-05-30T08:10:38.212Z,7.40
2019-05-30T08:11:37.875Z,7.60
2019-05-30T08:12:38.389Z,7.10
2019-05-30T08:13:37.862Z,7.50
2019-05-30T08:14:37.849Z,6.50
2019-05-30T08:15:43.725Z,7.30
2019-05-30T08:16:38.822Z,7.00
2019-05-30T08:17:38.012Z,6.50
2019-05-30T08:18:37.995Z,6.40
2019-05-30T08:19:38.266Z,6.20
2019-05-30T08:20:38.092Z,7.20
2019-05-30T08:21:38.330Z,6.60
2019-05-30T08:22:38.321Z,6.50
2019-05-30T08:23:38.416Z,6.60
2019-05-30T08:24:38.839Z,6.40
2019-05-30T08:25:38.487Z,6.70
2019-05-30T08:26:38.470Z,6.00
2019-05-30T08:27:38.642Z,6.20
2019-05-30T08:28:38.675Z,5.90
2019-05-30T08:29:38.534Z,5.80
2019-05-30T08:30:38.705Z,5.40
2019-05-30T08:31:38.800Z,5.90
2019-05-30T08:32:38.893Z,5.60
2019-05-30T08:33:37.717Z,5.30
2019-05-30T08:34:38.748Z,5.10
2019-05-30T08:35:47.715Z,5.40
2019-05-30T08:36:39.182Z,4.90
2019-05-30T08:37:37.604Z,4.80
2019-05-30T08:38:37.636Z,5.20
2019-05-30T08:39:37.576Z,5.00
2019-05-30T08:40:37.813Z,5.20
2019-05-30T08:41:37.577Z,4.80
2019-05-30T08:42:38.448Z,4.80
2019-05-30T08:43:37.650Z,5.20
2019-05-30T08:44:38.033Z,5.00
2019-05-30T08:45:37.987Z,4.60
2019-05-30T08:46:37.928Z,4.80
2019-05-30T08:47:38.098Z,5.20
2019-05-30T08:48:38.322Z,5.20
2019-05-30T08:49:38.241Z,5.40
2019-05-30T08:50:41.337Z,5.10
2019-05-30T08:51:38.455Z,4.30
2019-05-30T08:52:38.633Z,4.60
2019-05-30T08:53:38.425Z,5.00
2019-05-30T08:54:38.546Z,5.30
2019-05-30T08:55:38.503Z,5.40
2019-05-30T08:56:38.531Z,5.10
2019-05-30T08:57:38.593Z,4.90
2019-05-30T08:58:38.664Z,4.60
2019-05-30T08:59:38.540Z,4.40
2019-05-30T09:00:37.403Z,4.50
2019-05-30T09:01:37.749Z,5.00
2019-05-30T09:02:37.342Z,4.70
2019-05-30T09:03:38.452Z,4.90
2019-05-30T09:04:37.920Z,4.90
2019-05-30T09:05:38.605Z,5.10
2019-05-30T09:06:37.817Z,5.40
2019-05-30T09:07:38.279Z,4.80
2019-05-30T09:08:37.961Z,4.80
2019-05-30T09:09:38.133Z,5.10
2019-05-30T09:10:37.824Z,4.70
2019-05-30T09:11:37.745Z,4.60
2019-05-30T09:12:38.486Z,4.80
2019-05-30T09:13:37.718Z,4.90
2019-05-30T09:14:37.871Z,4.60
2019-05-30T09:15:37.943Z,4.70
2019-05-30T09:16:37.187Z,4.40
2019-05-30T09:17:38.663Z,4.70
2019-05-30T09:18:38.583Z,4.50
2019-05-30T09:19:38.441Z,4.30
2019-05-30T09:20:38.439Z,4.60
2019-05-30T09:21:38.697Z,4.20
2019-05-30T09:22:38.064Z,4.20
2019-05-30T09:23:38.455Z,4.00
2019-05-30T09:24:38.473Z,4.00
2019-05-30T09:25:37.251Z,4.10
2019-05-30T09:26:38.525Z,4.40
2019-05-30T09:27:37.755Z,5.80
2019-05-30T09:28:37.746Z,4.20
2019-05-30T09:29:37.844Z,30.00
2019-05-30T09:30:38.233Z,531.20
2019-05-30T09:31:38.083Z,179.40
2019-05-30T09:32:38.338Z,25.40
2019-05-30T09:33:38.097Z,4.30
2019-05-30T09:34:37.015Z,4.00
2019-05-30T09:35:36.987Z,64.40
2019-05-30T09:36:36.973Z,48.30
2019-05-30T09:37:36.984Z,4.50
2019-05-30T09:38:36.991Z,3.60
2019-05-30T09:39:36.953Z,4.00
2019-05-30T09:40:36.969Z,9.00
2019-05-30T09:41:36.922Z,3.40
2019-05-30T09:42:36.959Z,3.10
2019-05-30T09:43:36.902Z,4.10
2019-05-30T09:44:36.894Z,3.80
2019-05-30T09:45:36.879Z,8.60
2019-05-30T09:46:36.871Z,5.80
2019-05-30T09:47:36.862Z,5.60
2019-05-30T09:48:36.900Z,4.70
2019-05-30T09:49:36.850Z,2.90
2019-05-30T09:50:36.890Z,5.30
2019-05-30T09:51:36.821Z,2.50
2019-05-30T09:52:36.807Z,3.40
2019-05-30T09:53:36.798Z,3.30
2019-05-30T09:54:36.839Z,2.90
2019-05-30T09:55:36.818Z,2.50
2019-05-30T09:56:36.767Z,2.30
2019-05-30T09:57:36.755Z,2.10
2019-05-30T09:58:36.793Z,2.30
2019-05-30T09:59:36.729Z,2.80
2019-05-30T10:00:36.723Z,2.60
2019-05-30T10:01:36.781Z,1.50
2019-05-30T10:02:36.701Z,1.60
2019-05-30T10:03:36.688Z,1.50
2019-05-30T10:04:36.707Z,1.60
2019-05-30T10:05:36.705Z,2.00
2019-05-30T10:06:36.657Z,1.50
2019-05-30T10:07:36.649Z,1.80
2019-05-30T10:08:36.668Z,2.00
2019-05-30T10:09:36.625Z,1.60
2019-05-30T10:10:36.635Z,1.40
2019-05-30T10:11:36.644Z,1.50
2019-05-30T10:12:36.594Z,2.10
2019-05-30T10:13:36.615Z,1.60
2019-05-30T10:14:36.581Z,1.60
2019-05-30T10:15:36.586Z,1.90
2019-05-30T10:16:36.560Z,1.40
2019-05-30T10:17:36.582Z,1.40
2019-05-30T10:18:36.524Z,1.40
2019-05-30T10:19:36.512Z,1.40
2019-05-30T10:20:36.501Z,1.80
2019-05-30T10:21:36.493Z,1.40
2019-05-30T10:22:36.483Z,1.10
2019-05-30T10:23:36.513Z,1.40
2019-05-30T10:24:36.463Z,1.50
2019-05-30T10:25:36.448Z,1.50
2019-05-30T10:26:36.452Z,1.90
2019-05-30T10:27:36.421Z,1.70
2019-05-30T10:28:36.410Z,1.60
2019-05-30T10:29:36.502Z,1.90
2019-05-30T10:30:36.392Z,1.70
2019-05-30T10:31:36.383Z,4.80
2019-05-30T10:32:36.368Z,1.50
2019-05-30T10:33:36.359Z,1.30
2019-05-30T10:34:36.339Z,1.70
2019-05-30T10:35:36.380Z,1.50
2019-05-30T10:36:44.341Z,2.00
2019-05-30T10:37:37.324Z,1.50
2019-05-30T10:38:36.299Z,1.80
2019-05-30T10:39:36.289Z,1.80
2019-05-30T10:40:36.320Z,2.30
2019-05-30T10:41:36.268Z,2.40
2019-05-30T10:42:36.268Z,21.50
2019-05-30T10:43:36.262Z,1.80
2019-05-30T10:44:36.259Z,1.40
2019-05-30T10:45:38.642Z,1.40
2019-05-30T10:46:36.288Z,1.60
2019-05-30T10:47:43.357Z,1.50
2019-05-30T10:48:36.960Z,1.80
2019-05-30T10:49:36.970Z,1.10
2019-05-30T10:50:36.958Z,1.40
2019-05-30T10:51:36.189Z,1.80
2019-05-30T10:52:36.174Z,1.40
2019-05-30T10:53:37.666Z,1.30
2019-05-30T10:54:36.180Z,3.20
2019-05-30T10:55:36.117Z,1.60
2019-05-30T10:56:36.147Z,1.00
2019-05-30T10:57:36.145Z,1.20
2019-05-30T10:58:36.095Z,1.70
2019-05-30T10:59:36.074Z,1.80
2019-05-30T11:00:36.073Z,1.40
2019-05-30T11:01:36.074Z,1.30
2019-05-30T11:02:36.954Z,1.20
2019-05-30T11:03:36.056Z,1.30
2019-05-30T11:04:36.048Z,1.10
2019-05-30T11:05:36.041Z,1.60
2019-05-30T11:06:35.994Z,1.10
2019-05-30T11:07:36.022Z,0.80
2019-05-30T11:08:36.012Z,1.50
2019-05-30T11:09:35.963Z,1.30
2019-05-30T11:10:35.962Z,1.60
2019-05-30T11:11:36.971Z,1.10
2019-05-30T11:12:35.943Z,1.30
2019-05-30T11:13:35.933Z,1.50
2019-05-30T11:14:35.972Z,1.10
2019-05-30T11:15:35.899Z,1.60
2019-05-30T11:16:35.881Z,1.10
2019-05-30T11:17:35.881Z,1.20
2019-05-30T11:18:35.870Z,1.50
2019-05-30T11:19:35.860Z,1.90
2019-05-30T11:20:35.888Z,1.10
2019-05-30T11:21:35.850Z,1.20
2019-05-30T11:22:35.820Z,1.80
2019-05-30T11:23:35.809Z,1.20
2019-05-30T11:24:35.807Z,1.10
2019-05-30T11:25:35.799Z,0.90
2019-05-30T11:26:35.809Z,1.00
2019-05-30T11:27:35.820Z,1.40
2019-05-30T11:28:35.777Z,1.00
2019-05-30T11:29:35.752Z,0.90
2019-05-30T11:30:35.739Z,1.10
2019-05-30T11:31:35.727Z,0.90
2019-05-30T11:32:35.723Z,1.10
2019-05-30T11:33:35.738Z,1.10
2019-05-30T11:34:35.697Z,2.10
2019-05-30T11:35:35.687Z,1.10
2019-05-30T11:36:35.673Z,1.00
2019-05-30T11:37:35.660Z,1.00
2019-05-30T11:38:35.685Z,0.80
2019-05-30T11:39:35.635Z,1.10
2019-05-30T11:40:35.626Z,1.20
2019-05-30T11:41:35.617Z,0.80
2019-05-30T11:42:35.605Z,1.20
2019-05-30T11:43:35.604Z,1.00
2019-05-30T11:44:35.616Z,0.90
2019-05-30T11:45:35.567Z,1.20
2019-05-30T11:46:35.554Z,0.80
2019-05-30T11:47:35.546Z,1.10
2019-05-30T11:48:35.544Z,1.00
2019-05-30T11:49:35.572Z,1.00
2019-05-30T11:50:35.554Z,0.90
2019-05-30T11:51:35.532Z,1.30
2019-05-30T11:52:35.491Z,1.00
2019-05-30T11:53:35.481Z,2.20
2019-05-30T11:54:35.507Z,1.00
2019-05-30T11:55:35.460Z,0.80
2019-05-30T11:56:35.442Z,0.80
2019-05-30T11:57:35.452Z,0.80
2019-05-30T11:58:35.423Z,1.20
2019-05-30T11:59:35.454Z,1.20
2019-05-30T12:00:35.406Z,1.20
2019-05-30T12:01:35.402Z,1.50
2019-05-30T12:02:35.381Z,0.90
2019-05-30T12:03:35.373Z,1.00
2019-05-30T12:04:35.361Z,1.30
2019-05-30T12:05:35.385Z,0.80
2019-05-30T12:06:35.346Z,1.10
2019-05-30T12:07:36.693Z,1.60
2019-05-30T12:08:35.312Z,1.00
2019-05-30T12:09:35.344Z,0.80
2019-05-30T12:10:35.299Z,1.60
2019-05-30T12:11:35.291Z,1.20
2019-05-30T12:12:35.279Z,1.10
2019-05-30T12:13:35.290Z,1.00
2019-05-30T12:14:35.288Z,0.90
2019-05-30T12:15:35.271Z,1.10
2019-05-30T12:16:35.403Z,0.80
2019-05-30T12:17:35.220Z,0.90
2019-05-30T12:18:35.210Z,0.90
2019-05-30T12:19:35.208Z,1.50
2019-05-30T12:20:35.227Z,3.70
2019-05-30T12:21:35.176Z,1.90
2019-05-30T12:22:35.167Z,0.90
2019-05-30T12:23:35.157Z,1.20
2019-05-30T12:24:35.146Z,0.90
2019-05-30T12:25:35.136Z,1.10
2019-05-30T12:26:35.156Z,1.80
2019-05-30T12:27:35.106Z,0.90
2019-05-30T12:28:35.098Z,1.20
2019-05-30T12:29:35.098Z,1.30
2019-05-30T12:30:35.077Z,1.00
2019-05-30T12:31:35.068Z,0.80
2019-05-30T12:32:35.105Z,1.00
2019-05-30T12:33:35.048Z,1.00
2019-05-30T12:34:35.033Z,1.10
2019-05-30T12:35:35.037Z,0.90
2019-05-30T12:36:35.691Z,1.30
2019-05-30T12:37:35.140Z,1.20
2019-05-30T12:38:35.554Z,0.90
2019-05-30T12:39:34.982Z,1.00
2019-05-30T12:40:34.977Z,0.80
2019-05-30T12:41:34.973Z,0.90
2019-05-30T12:42:34.953Z,0.70
2019-05-30T12:43:34.972Z,1.00
2019-05-30T12:44:35.042Z,1.20
2019-05-30T12:45:34.913Z,0.80
2019-05-30T12:46:34.920Z,1.30
2019-05-30T12:47:34.892Z,1.10
2019-05-30T12:48:34.883Z,0.80
2019-05-30T12:49:34.877Z,1.00